Time;durP1;ratioP1;P1;durP2;ratioP2;P2;SDS_P1;SDS_P2;PMS_P1;PMS_P2;Temp;Humidity;BMP_temperature;BMP_pressure;BME280_temperature;BME280_humidity;BME280_pressure;Samples;Min_cycle;Max_cycle;Signal;HPM_P1;HPM_P2
2023/03/29 00:00:26;;;;;;;1.63;1.00;;;19.90;60.80;;;;;;4931055;28;87497;-83
2023/03/29 00:02:55;;;;;;;1.38;0.85;;;19.90;60.70;;;;;;4929938;28;88647;-83
2023/03/29 00:05:21;;;;;;;1.70;1.10;;;19.90;60.70;;;;;;4927248;28;90202;-84
2023/03/29 00:07:52;;;;;;;1.38;0.98;;;19.90;60.70;;;;;;4930114;28;87034;-83
2023/03/29 00:10:19;;;;;;;1.65;1.25;;;19.90;60.60;;;;;;4925716;28;87381;-84
2023/03/29 00:12:45;;;;;;;2.10;1.10;;;19.90;60.70;;;;;;4930515;28;88968;-83
2023/03/29 00:15:11;;;;;;;1.33;1.00;;;19.80;60.70;;;;;;4926499;28;89847;-84
2023/03/29 00:17:37;;;;;;;2.05;1.05;;;19.80;60.80;;;;;;4927295;28;87453;-83
2023/03/29 00:20:06;;;;;;;1.80;0.90;;;19.90;60.80;;;;;;4888031;28;86770;-84
2023/03/29 00:22:31;;;;;;;2.37;0.90;;;19.90;60.90;;;;;;4887354;28;90209;-84
2023/03/29 00:24:57;;;;;;;1.88;1.20;;;19.80;60.70;;;;;;4890539;28;87369;-83
2023/03/29 00:27:22;;;;;;;1.58;1.05;;;19.80;60.70;;;;;;4887989;28;88373;-84
2023/03/29 00:29:48;;;;;;;1.65;1.10;;;19.80;60.80;;;;;;4888273;28;87864;-84
2023/03/29 00:32:14;;;;;;;1.70;1.02;;;19.80;60.80;;;;;;4897594;28;88934;-83
2023/03/29 00:34:44;;;;;;;1.83;1.30;;;19.80;60.80;;;;;;4927298;28;87383;-84
2023/03/29 00:37:11;;;;;;;2.17;1.00;;;19.80;60.70;;;;;;4925894;28;87265;-84
2023/03/29 00:39:39;;;;;;;1.42;1.25;;;19.80;60.70;;;;;;4929096;28;88102;-83
2023/03/29 00:42:05;;;;;;;1.58;1.00;;;19.80;60.50;;;;;;4923545;28;87215;-83
2023/03/29 00:45:01;;;;;;;1.55;1.08;;;19.80;60.70;;;;;;4926051;28;89591;-84
2023/03/29 00:47:36;;;;;;;1.55;1.10;;;19.70;60.70;;;;;;4926141;28;87254;-83
2023/03/29 00:50:28;;;;;;;2.13;1.17;;;19.70;60.80;;;;;;4927329;28;90432;-83
2023/03/29 00:53:11;;;;;;;2.22;1.00;;;19.70;60.80;;;;;;4954219;28;91852;-82
2023/03/29 00:55:56;;;;;;;1.42;1.02;;;19.70;60.90;;;;;;4947192;28;89258;-84
2023/03/29 00:58:28;;;;;;;1.63;1.10;;;19.70;60.80;;;;;;4949977;28;86892;-83
2023/03/29 01:01:07;;;;;;;1.63;1.20;;;19.70;60.70;;;;;;4947332;28;90833;-84
2023/03/29 01:03:44;;;;;;;1.50;1.05;;;19.70;60.70;;;;;;4948934;28;92825;-85
2023/03/29 01:06:13;;;;;;;1.60;1.13;;;19.70;60.70;;;;;;4949187;28;89010;-83
2023/03/29 01:08:43;;;;;;;1.45;1.10;;;19.70;60.80;;;;;;4962276;28;87220;-83
2023/03/29 01:11:32;;;;;;;1.38;1.20;;;19.60;60.80;;;;;;4949007;28;86460;-83
2023/03/29 01:14:05;;;;;;;1.53;1.00;;;19.60;60.70;;;;;;4946081;28;87608;-84
2023/03/29 01:16:33;;;;;;;0.80;0.80;;;19.70;60.80;;;;;;4947061;28;90101;-83
2023/03/29 01:18:59;;;;;;;1.88;1.08;;;19.60;60.70;;;;;;4947615;28;88315;-83
2023/03/29 01:21:35;;;;;;;1.60;1.13;;;19.60;60.70;;;;;;4951572;28;87558;-83
2023/03/29 01:24:24;;;;;;;1.77;1.20;;;19.60;60.60;;;;;;4952427;28;88266;-83
2023/03/29 01:27:14;;;;;;;2.53;1.08;;;19.70;60.90;;;;;;4921449;28;88032;-83
2023/03/29 01:29:47;;;;;;;1.52;0.95;;;19.60;60.70;;;;;;4923557;28;87654;-83
2023/03/29 01:32:23;;;;;;;1.33;1.13;;;19.60;60.80;;;;;;4921015;28;90313;-84
2023/03/29 01:34:57;;;;;;;1.73;1.20;;;19.60;60.70;;;;;;4923392;28;88178;-83
2023/03/29 01:37:36;;;;;;;1.88;1.10;;;19.60;60.90;;;;;;4922854;28;87887;-84
2023/03/29 01:40:06;;;;;;;1.23;0.98;;;19.60;60.80;;;;;;4924328;28;87472;-83
2023/03/29 01:43:00;;;;;;;1.50;1.08;;;19.60;61.00;;;;;;4923477;28;92346;-84
2023/03/29 01:46:00;;;;;;;1.27;0.85;;;19.60;61.00;;;;;;4920556;28;92846;-84
2023/03/29 01:48:47;;;;;;;1.58;1.00;;;19.60;60.90;;;;;;4896873;28;89484;-83
2023/03/29 01:51:21;;;;;;;1.50;1.17;;;19.50;60.80;;;;;;4905284;28;87714;-83
2023/03/29 01:53:57;;;;;;;1.38;1.20;;;19.60;60.80;;;;;;4904347;28;87695;-84
2023/03/29 01:56:27;;;;;;;1.67;0.85;;;19.50;60.90;;;;;;4903565;28;88097;-84
2023/03/29 01:58:57;;;;;;;1.80;1.30;;;19.50;60.70;;;;;;4904459;28;87900;-83
2023/03/29 02:01:27;;;;;;;1.38;0.80;;;19.50;60.60;;;;;;4904132;28;87083;-84
2023/03/29 02:03:58;;;;;;;1.50;0.98;;;19.50;60.90;;;;;;4925066;28;86564;-84
2023/03/29 02:06:26;;;;;;;1.60;1.00;;;19.50;60.70;;;;;;4936899;28;90268;-83
2023/03/29 02:08:54;;;;;;;1.25;0.93;;;19.50;60.80;;;;;;4938548;28;91843;-84
2023/03/29 02:11:22;;;;;;;2.80;1.58;;;19.50;60.70;;;;;;4938541;28;88321;-84
2023/03/29 02:13:47;;;;;;;0.98;0.77;;;19.50;61.00;;;;;;4938545;28;87283;-83
2023/03/29 02:16:14;;;;;;;1.45;1.00;;;19.50;60.80;;;;;;4939046;28;88312;-84
2023/03/29 02:18:45;;;;;;;1.40;1.13;;;19.50;60.80;;;;;;4939423;28;89209;-84
2023/03/29 02:21:20;;;;;;;2.08;0.95;;;19.50;60.90;;;;;;4937977;28;87012;-83
2023/03/29 02:23:48;;;;;;;1.00;0.90;;;19.50;60.90;;;;;;4937251;28;87298;-83
2023/03/29 02:26:14;;;;;;;1.17;0.98;;;19.50;60.70;;;;;;4946317;28;88011;-83
2023/03/29 02:28:41;;;;;;;1.00;0.88;;;19.40;60.90;;;;;;4952706;28;87224;-84
2023/03/29 02:31:14;;;;;;;1.30;1.00;;;19.40;60.80;;;;;;4949883;28;87430;-84
2023/03/29 02:33:59;;;;;;;1.75;1.02;;;19.40;60.80;;;;;;4929366;28;87121;-83
2023/03/29 02:36:52;;;;;;;1.90;1.10;;;19.50;60.70;;;;;;4925540;28;89520;-84
2023/03/29 02:39:19;;;;;;;1.10;0.82;;;19.50;60.70;;;;;;4858142;28;88946;-84
2023/03/29 02:41:48;;;;;;;1.25;1.05;;;19.40;60.50;;;;;;4858504;29;87475;-84
2023/03/29 02:44:20;;;;;;;1.30;0.85;;;19.50;60.60;;;;;;4856494;28;88114;-84
2023/03/29 02:46:50;;;;;;;1.38;0.95;;;19.40;60.60;;;;;;4856904;29;88795;-84
2023/03/29 02:49:16;;;;;;;1.33;0.85;;;19.40;60.60;;;;;;4858160;29;87942;-84
2023/03/29 02:51:46;;;;;;;1.90;1.13;;;19.40;60.70;;;;;;4858107;29;87583;-84
2023/03/29 02:54:14;;;;;;;;;;;19.40;60.50;;;;;;4857384;28;88269;-84
2023/03/29 02:56:45;;;;;;;1.50;1.10;;;19.40;60.50;;;;;;4858518;29;88148;-84
2023/03/29 02:59:11;;;;;;;1.40;1.15;;;19.40;60.70;;;;;;4858549;28;88463;-83
2023/03/29 03:01:41;;;;;;;0.93;0.80;;;19.40;60.60;;;;;;4858283;29;88714;-83
2023/03/29 03:04:08;;;;;;;1.48;1.08;;;19.30;60.70;;;;;;4856423;28;87547;-84
2023/03/29 03:06:36;;;;;;;1.48;1.10;;;19.40;60.70;;;;;;4858477;29;90077;-84
2023/03/29 03:09:03;;;;;;;1.63;1.02;;;19.40;60.80;;;;;;4864336;28;89421;-84
2023/03/29 03:11:30;;;;;;;1.58;1.10;;;19.30;60.70;;;;;;4858938;29;87697;-84
2023/03/29 03:13:56;;;;;;;1.08;0.98;;;19.30;60.70;;;;;;4864378;28;90646;-84
2023/03/29 03:16:22;;;;;;;0.85;0.77;;;19.30;60.70;;;;;;4892553;28;87780;-84
2023/03/29 03:18:50;;;;;;;1.00;0.82;;;19.30;60.80;;;;;;4924653;28;89968;-83
2023/03/29 03:21:16;;;;;;;1.15;0.93;;;19.30;60.70;;;;;;4927164;28;87342;-83
2023/03/29 03:23:42;;;;;;;0.85;0.80;;;19.30;60.70;;;;;;4927846;28;87410;-83
2023/03/29 03:26:08;;;;;;;1.25;0.80;;;19.30;60.60;;;;;;4924916;28;89542;-83
2023/03/29 03:28:34;;;;;;;2.70;0.88;;;19.30;60.70;;;;;;4927404;28;88734;-83
2023/03/29 03:30:59;;;;;;;2.13;1.10;;;19.40;60.70;;;;;;4926639;28;87267;-83
2023/03/29 03:33:26;;;;;;;0.90;0.80;;;19.30;60.50;;;;;;4941871;28;88477;-83
2023/03/29 03:35:55;;;;;;;1.27;0.90;;;19.30;60.60;;;;;;4949149;28;88426;-84
2023/03/29 03:38:22;;;;;;;2.47;0.90;;;19.30;60.70;;;;;;4946406;28;87930;-84
2023/03/29 03:40:54;;;;;;;1.25;0.88;;;19.30;60.70;;;;;;4946194;28;87171;-83
2023/03/29 03:43:20;;;;;;;1.58;1.10;;;19.30;60.60;;;;;;4946748;28;86934;-83
2023/03/29 03:45:46;;;;;;;1.27;0.90;;;19.30;60.60;;;;;;4945867;28;88293;-84
2023/03/29 03:48:12;;;;;;;1.42;0.80;;;19.30;60.60;;;;;;4942469;28;88780;-83
2023/03/29 03:50:38;;;;;;;1.10;0.90;;;19.30;61.30;;;;;;4927684;28;88499;-84
2023/03/29 03:53:04;;;;;;;1.13;0.80;;;19.20;60.50;;;;;;4943519;28;86889;-84
2023/03/29 03:55:31;;;;;;;0.80;0.80;;;19.20;61.30;;;;;;4944443;28;87968;-83
2023/03/29 03:57:57;;;;;;;1.02;0.85;;;19.30;60.60;;;;;;4947898;28;88030;-84
2023/03/29 04:00:23;;;;;;;1.42;1.10;;;19.20;60.40;;;;;;4947092;28;87165;-84
2023/03/29 04:02:49;;;;;;;1.27;0.77;;;19.30;60.60;;;;;;4944481;28;87539;-84
2023/03/29 04:05:16;;;;;;;1.15;0.90;;;19.20;60.40;;;;;;4944043;28;88572;-84
2023/03/29 04:07:41;;;;;;;1.33;0.82;;;19.20;60.50;;;;;;4943953;28;89679;-84
2023/03/29 04:10:08;;;;;;;1.02;0.77;;;19.20;60.40;;;;;;4947024;28;86929;-84
2023/03/29 04:12:38;;;;;;;1.08;0.98;;;19.20;60.50;;;;;;4962340;28;89688;-84
2023/03/29 04:15:05;;;;;;;1.10;1.00;;;19.20;60.60;;;;;;4943018;28;89449;-84
2023/03/29 04:17:30;;;;;;;1.90;1.13;;;19.20;60.50;;;;;;4945396;28;89638;-84
2023/03/29 04:19:57;;;;;;;1.08;0.90;;;19.20;60.60;;;;;;4944125;28;87002;-84
2023/03/29 04:22:24;;;;;;;0.85;0.75;;;19.20;60.80;;;;;;4942104;28;88176;-83
2023/03/29 04:24:50;;;;;;;1.20;0.90;;;19.20;60.40;;;;;;4942270;28;87922;-84
2023/03/29 04:27:16;;;;;;;1.02;0.80;;;19.20;60.60;;;;;;4940524;28;87839;-83
2023/03/29 04:29:43;;;;;;;1.30;0.88;;;19.20;60.60;;;;;;4944826;28;87043;-83
2023/03/29 04:32:10;;;;;;;0.88;0.82;;;19.10;60.80;;;;;;4938504;28;87171;-83
2023/03/29 04:34:36;;;;;;;0.73;0.73;;;19.20;60.70;;;;;;4915158;28;90340;-83
2023/03/29 04:37:08;;;;;;;2.13;1.10;;;19.20;60.60;;;;;;4909809;28;90593;-84
2023/03/29 04:39:37;;;;;;;0.98;0.82;;;19.10;60.50;;;;;;4909071;28;88462;-84
2023/03/29 04:42:04;;;;;;;0.80;0.80;;;19.10;60.80;;;;;;4925539;28;87709;-83
2023/03/29 04:44:32;;;;;;;1.23;0.80;;;19.10;60.50;;;;;;4924332;28;87744;-84
2023/03/29 04:46:59;;;;;;;1.05;0.90;;;19.10;60.80;;;;;;4924734;28;87881;-83
2023/03/29 04:49:25;;;;;;;1.20;1.00;;;19.10;60.60;;;;;;4924395;28;87667;-84
2023/03/29 04:51:52;;;;;;;0.70;0.70;;;19.20;60.70;;;;;;4925993;28;87223;-84
2023/03/29 04:54:17;;;;;;;0.88;0.80;;;19.10;60.70;;;;;;4923899;28;88687;-83
2023/03/29 04:56:43;;;;;;;1.13;0.90;;;19.10;60.50;;;;;;4923707;28;86840;-84
2023/03/29 04:59:09;;;;;;;1.20;1.02;;;19.10;60.60;;;;;;4923840;28;86984;-83
2023/03/29 05:01:34;;;;;;;1.30;0.90;;;19.10;60.50;;;;;;4924122;28;87310;-84
2023/03/29 05:04:01;;;;;;;1.40;1.00;;;19.10;60.50;;;;;;4914456;28;91177;-83
2023/03/29 05:06:28;;;;;;;2.13;0.90;;;19.10;60.50;;;;;;4923150;28;89242;-84
2023/03/29 05:08:54;;;;;;;1.60;0.90;;;19.10;60.60;;;;;;4925827;28;87491;-84
2023/03/29 05:11:20;;;;;;;0.90;0.85;;;19.10;60.40;;;;;;4926593;28;87409;-84
2023/03/29 05:13:45;;;;;;;1.58;0.90;;;19.10;60.50;;;;;;4925891;28;90056;-84
2023/03/29 05:16:11;;;;;;;1.25;0.85;;;19.00;60.50;;;;;;4925319;28;89326;-84
2023/03/29 05:18:37;;;;;;;1.77;0.90;;;19.00;60.50;;;;;;4926428;28;86954;-83
2023/03/29 05:21:03;;;;;;;0.73;0.70;;;19.00;60.70;;;;;;4923522;28;88390;-83
2023/03/29 05:23:29;;;;;;;1.17;0.90;;;19.00;60.60;;;;;;4913678;28;90593;-84
2023/03/29 05:25:55;;;;;;;1.10;0.73;;;19.00;60.80;;;;;;4922331;28;87842;-83
2023/03/29 05:28:21;;;;;;;0.68;0.68;;;19.00;60.80;;;;;;4926254;28;88487;-83
2023/03/29 05:30:57;;;;;;;0.75;0.70;;;19.00;60.80;;;;;;4924773;28;89584;-84
2023/03/29 05:33:23;;;;;;;1.15;0.90;;;19.00;60.60;;;;;;4938040;28;89405;-83
2023/03/29 05:35:58;;;;;;;1.17;0.95;;;19.00;60.40;;;;;;4942807;28;87698;-83
2023/03/29 05:38:24;;;;;;;1.13;0.90;;;19.00;60.50;;;;;;4944677;28;86880;-84
2023/03/29 05:40:50;;;;;;;1.15;0.80;;;19.00;60.70;;;;;;4945665;28;86942;-84
2023/03/29 05:43:16;;;;;;;0.98;0.75;;;19.00;60.90;;;;;;4946553;28;87644;-84
2023/03/29 05:45:42;;;;;;;1.08;0.70;;;19.00;60.80;;;;;;4943538;28;88844;-84
2023/03/29 05:48:08;;;;;;;1.10;1.00;;;19.00;60.90;;;;;;4946128;28;87523;-84
2023/03/29 05:50:36;;;;;;;1.00;0.88;;;19.00;60.90;;;;;;4943781;28;87428;-84
2023/03/29 05:53:02;;;;;;;1.02;0.80;;;19.00;60.80;;;;;;4942553;28;91969;-83
2023/03/29 05:55:28;;;;;;;1.33;0.98;;;19.00;60.80;;;;;;4945189;28;88637;-84
2023/03/29 05:57:54;;;;;;;0.75;0.70;;;19.00;61.10;;;;;;4959861;28;87298;-83
2023/03/29 06:00:24;;;;;;;1.08;0.80;;;18.90;60.80;;;;;;4945697;28;87440;-83
2023/03/29 06:02:54;;;;;;;0.80;0.80;;;19.00;60.70;;;;;;4944462;28;87757;-83
2023/03/29 06:05:20;;;;;;;1.27;1.05;;;18.90;60.80;;;;;;4944805;28;87932;-83
2023/03/29 06:07:47;;;;;;;0.80;0.77;;;18.90;60.70;;;;;;4944543;28;87527;-84
2023/03/29 06:10:14;;;;;;;1.25;0.90;;;19.00;60.80;;;;;;4948542;28;86988;-83
2023/03/29 06:12:40;;;;;;;1.10;0.90;;;18.90;60.70;;;;;;4946066;28;89585;-83
2023/03/29 06:15:07;;;;;;;1.00;0.75;;;18.90;60.70;;;;;;4941087;28;87845;-84
2023/03/29 06:17:33;;;;;;;0.80;0.80;;;18.90;60.60;;;;;;4960376;28;87844;-84
2023/03/29 06:20:00;;;;;;;1.55;1.00;;;18.90;60.80;;;;;;4946901;28;87676;-84
2023/03/29 06:22:26;;;;;;;0.82;0.80;;;18.90;60.70;;;;;;4942971;28;88375;-84
2023/03/29 06:24:52;;;;;;;0.93;0.80;;;18.90;60.70;;;;;;4947147;28;88123;-83
2023/03/29 06:27:18;;;;;;;0.88;0.70;;;18.90;60.60;;;;;;4951414;28;87368;-83
2023/03/29 06:29:44;;;;;;;0.90;0.90;;;18.90;60.60;;;;;;4954547;28;88172;-83
2023/03/29 06:32:12;;;;;;;0.85;0.80;;;18.90;60.70;;;;;;4944324;28;87344;-82
2023/03/29 06:34:38;;;;;;;1.05;0.75;;;19.00;60.00;;;;;;4930429;28;88406;-83
2023/03/29 06:37:04;;;;;;;1.08;0.80;;;19.10;59.90;;;;;;4911898;28;87551;-83
2023/03/29 06:39:30;;;;;;;1.20;0.80;;;19.10;59.30;;;;;;4910752;28;90378;-84
2023/03/29 06:41:55;;;;;;;1.42;0.68;;;19.10;59.50;;;;;;4926611;28;89280;-82
2023/03/29 06:44:21;;;;;;;1.92;1.00;;;19.10;59.80;;;;;;4924480;28;88341;-83
2023/03/29 06:46:47;;;;;;;2.35;0.88;;;19.20;59.30;;;;;;4927242;28;87645;-83
2023/03/29 06:49:12;;;;;;;1.08;0.95;;;19.40;59.60;;;;;;4926965;28;86967;-82
2023/03/29 06:51:39;;;;;;;4.18;0.88;;;19.50;59.60;;;;;;4924659;28;88325;-82
2023/03/29 06:54:05;;;;;;;1.70;0.90;;;19.70;59.30;;;;;;4924542;28;87537;-82
2023/03/29 06:56:31;;;;;;;4.00;1.30;;;19.80;59.00;;;;;;4928773;28;87378;-84
2023/03/29 06:58:56;;;;;;;4.38;1.17;;;19.80;58.80;;;;;;4928782;28;86812;-83
2023/03/29 07:01:23;;;;;;;4.25;0.90;;;20.00;58.80;;;;;;4928379;28;87902;-84
2023/03/29 07:03:48;;;;;;;1.83;1.42;;;20.00;59.00;;;;;;4928255;28;87728;-83
2023/03/29 07:06:16;;;;;;;3.55;1.27;;;20.00;58.80;;;;;;4926891;28;88285;-84
2023/03/29 07:08:42;;;;;;;2.92;1.20;;;20.10;59.00;;;;;;4927080;28;87620;-84
2023/03/29 07:11:12;;;;;;;1.60;1.10;;;20.10;59.10;;;;;;4926713;28;88176;-83
2023/03/29 07:13:42;;;;;;;2.80;1.02;;;20.10;59.20;;;;;;4925452;28;88354;-84
2023/03/29 07:16:11;;;;;;;;;;;20.00;59.30;;;;;;4930334;28;87487;-84
2023/03/29 07:18:38;;;;;;;3.45;1.33;;;20.10;59.40;;;;;;4930134;28;90415;-83
2023/03/29 07:21:05;;;;;;;3.10;1.25;;;20.10;59.40;;;;;;4926509;28;88321;-84
2023/03/29 07:23:30;;;;;;;3.25;1.30;;;20.00;59.60;;;;;;4927936;28;86828;-84
2023/03/29 07:25:56;;;;;;;3.90;1.45;;;19.90;59.90;;;;;;4928946;28;87534;-84
2023/03/29 07:28:21;;;;;;;4.18;1.02;;;20.10;59.80;;;;;;4926660;28;88733;-85
2023/03/29 07:30:48;;;;;;;3.55;1.58;;;20.00;59.80;;;;;;4925636;28;92504;-83
2023/03/29 07:33:14;;;;;;;1.10;0.90;;;19.90;60.10;;;;;;4926685;28;91005;-84
2023/03/29 07:35:42;;;;;;;3.55;1.23;;;19.90;60.20;;;;;;4927975;28;87559;-83
2023/03/29 07:38:08;;;;;;;3.92;1.60;;;19.90;60.40;;;;;;4926532;28;89068;-83
2023/03/29 07:40:34;;;;;;;8.43;1.60;;;19.80;60.60;;;;;;4928656;28;88212;-83
2023/03/29 07:43:01;;;;;;;4.57;1.40;;;19.90;60.70;;;;;;4926632;28;88546;-84
2023/03/29 07:45:28;;;;;;;3.17;1.30;;;19.90;60.00;;;;;;4925666;28;86967;-84
2023/03/29 07:47:58;;;;;;;2.47;1.23;;;20.00;60.10;;;;;;4926047;28;86519;-83
2023/03/29 07:50:24;;;;;;;1.75;1.17;;;20.00;60.20;;;;;;4926776;28;87117;-82
2023/03/29 07:52:50;;;;;;;3.08;1.00;;;20.00;60.10;;;;;;4926604;28;88557;-83
2023/03/29 07:55:16;;;;;;;3.22;0.90;;;20.10;60.10;;;;;;4928406;28;88247;-84
2023/03/29 07:57:47;;;;;;;3.17;1.55;;;20.20;59.90;;;;;;4901385;28;87854;-83
2023/03/29 08:00:18;;;;;;;1.88;1.23;;;20.20;59.90;;;;;;4926880;28;88129;-84
2023/03/29 08:02:46;;;;;;;1.63;1.15;;;20.30;59.70;;;;;;4909069;28;88865;-82
2023/03/29 08:05:13;;;;;;;2.45;1.33;;;20.30;59.60;;;;;;4926601;28;87662;-84
2023/03/29 08:07:43;;;;;;;2.42;1.00;;;20.30;59.50;;;;;;4924287;28;86996;-82
2023/03/29 08:10:17;;;;;;;3.08;1.20;;;20.40;59.40;;;;;;4925173;28;90789;-82
2023/03/29 08:12:44;;;;;;;3.58;1.33;;;20.30;59.60;;;;;;4923017;28;87620;-82
2023/03/29 08:15:10;;;;;;;6.03;1.60;;;20.40;59.40;;;;;;4921258;28;87374;-82
2023/03/29 08:17:36;;;;;;;3.00;1.52;;;20.30;57.10;;;;;;4896492;28;87998;-82
2023/03/29 08:20:04;;;;;;;6.38;1.30;;;20.40;58.00;;;;;;4923419;28;90437;-82
2023/03/29 08:22:31;;;;;;;4.30;1.45;;;20.30;58.30;;;;;;4923120;28;89858;-83
2023/03/29 08:24:57;;;;;;;3.90;1.60;;;20.20;57.30;;;;;;4924945;28;87222;-84
2023/03/29 08:27:23;;;;;;;2.75;1.20;;;20.20;57.60;;;;;;4908745;28;90463;-82
2023/03/29 08:29:49;;;;;;;2.17;1.50;;;20.20;57.90;;;;;;4923307;28;88347;-82
2023/03/29 08:32:15;;;;;;;3.85;1.23;;;20.10;58.30;;;;;;4924418;28;88492;-83
2023/03/29 08:34:41;;;;;;;4.13;1.58;;;20.10;58.40;;;;;;4927070;28;87276;-84
2023/03/29 08:37:07;;;;;;;1.98;1.15;;;20.20;58.70;;;;;;4925951;28;87049;-83
2023/03/29 08:39:32;;;;;;;2.53;1.50;;;20.20;58.90;;;;;;4925935;28;89776;-83
2023/03/29 08:42:09;;;;;;;2.50;1.38;;;20.30;58.60;;;;;;4923200;28;87576;-82
2023/03/29 08:44:45;;;;;;;7.22;1.30;;;20.40;56.90;;;;;;4926318;28;88405;-82
2023/03/29 08:47:34;;;;;;;5.28;1.60;;;20.30;57.80;;;;;;4923149;28;87689;-82
2023/03/29 08:50:00;;;;;;;3.47;1.60;;;20.30;58.20;;;;;;4929327;28;87791;-84
2023/03/29 08:52:46;;;;;;;4.03;1.50;;;20.30;58.30;;;;;;4927975;28;88243;-82
2023/03/29 08:55:27;;;;;;;4.57;1.35;;;20.40;58.50;;;;;;4838292;29;87541;-82
2023/03/29 08:57:54;;;;;;;3.42;1.05;;;20.50;59.20;;;;;;4839542;29;87761;-84
2023/03/29 09:00:43;;;;;;;2.15;1.45;;;20.60;59.40;;;;;;4837345;29;88089;-84
2023/03/29 09:03:28;;;;;;;2.17;1.63;;;20.80;57.30;;;;;;4837676;29;90982;-84
2023/03/29 09:05:59;;;;;;;2.58;1.42;;;20.80;58.20;;;;;;4836213;29;87113;-84
2023/03/29 09:08:25;;;;;;;5.07;2.17;;;20.90;58.20;;;;;;4836632;29;89291;-84
2023/03/29 09:11:15;;;;;;;3.47;1.50;;;21.00;58.30;;;;;;4836300;29;89109;-83
2023/03/29 09:13:58;;;;;;;4.22;2.00;;;21.00;58.30;;;;;;4837499;29;88793;-84
2023/03/29 09:16:36;;;;;;;9.30;2.63;;;21.00;58.60;;;;;;4837296;29;87145;-84
2023/03/29 09:19:10;;;;;;;9.50;3.17;;;20.90;58.80;;;;;;4838731;29;88600;-84
2023/03/29 09:22:15;;;;;;;7.07;2.78;;;20.90;58.70;;;;;;4853885;29;94097;-84
2023/03/29 09:24:58;;;;;;;10.68;2.67;;;20.90;58.80;;;;;;4810046;29;91895;-84
2023/03/29 09:27:59;;;;;;;12.20;2.72;;;20.80;58.90;;;;;;4809515;29;87832;-84
2023/03/29 09:30:32;;;;;;;7.82;2.50;;;20.80;59.10;;;;;;4808478;29;86940;-84
2023/03/29 09:33:21;;;;;;;11.75;3.30;;;20.80;59.20;;;;;;4848686;28;88548;-84
2023/03/29 09:36:04;;;;;;;9.48;3.03;;;20.70;59.40;;;;;;4864684;28;87550;-84
2023/03/29 09:38:31;;;;;;;6.90;3.28;;;20.70;59.50;;;;;;4865276;28;88500;-85
2023/03/29 09:41:16;;;;;;;10.45;2.88;;;20.70;59.60;;;;;;4864815;28;87729;-85
2023/03/29 09:43:43;;;;;;;11.07;3.45;;;20.60;59.80;;;;;;4871012;28;88330;-84
2023/03/29 09:46:18;;;;;;;12.07;3.47;;;20.60;59.90;;;;;;4870747;28;87517;-83
2023/03/29 09:48:45;;;;;;;9.98;3.25;;;20.60;59.90;;;;;;4872583;28;86938;-85
2023/03/29 09:51:13;;;;;;;8.60;3.00;;;20.60;59.80;;;;;;4871055;28;87164;-86
2023/03/29 09:53:38;;;;;;;12.50;3.15;;;20.70;59.70;;;;;;4869755;28;88214;-84
2023/03/29 09:56:05;;;;;;;13.40;2.88;;;20.70;59.60;;;;;;4869981;28;88238;-85
2023/03/29 09:58:31;;;;;;;9.23;3.13;;;20.80;59.60;;;;;;4871175;28;87735;-85
2023/03/29 10:01:00;;;;;;;10.68;3.25;;;20.80;59.60;;;;;;4875554;28;87463;-85
2023/03/29 10:03:31;;;;;;;12.60;3.13;;;20.80;59.40;;;;;;4928466;28;89321;-84
2023/03/29 10:06:17;;;;;;;10.00;3.50;;;20.80;59.40;;;;;;4928893;28;88109;-85
2023/03/29 10:08:50;;;;;;;11.55;3.38;;;20.80;59.60;;;;;;4929497;28;87402;-84
2023/03/29 10:11:31;;;;;;;7.95;2.88;;;20.80;59.60;;;;;;4929067;28;87365;-84
2023/03/29 10:14:03;;;;;;;10.55;3.10;;;20.80;59.40;;;;;;4929204;28;88375;-85
2023/03/29 10:16:35;;;;;;;9.32;2.78;;;20.80;59.40;;;;;;4927076;28;88973;-84
2023/03/29 10:19:23;;;;;;;10.68;3.25;;;20.80;59.50;;;;;;4930739;28;87240;-85
2023/03/29 10:21:51;;;;;;;8.68;3.03;;;20.80;59.40;;;;;;4942447;28;94633;-85
2023/03/29 10:24:19;;;;;;;9.43;3.37;;;20.80;60.20;;;;;;4926925;28;91327;-84
2023/03/29 10:26:45;;;;;;;11.80;3.10;;;20.80;59.50;;;;;;4928690;28;87841;-81
2023/03/29 10:29:12;;;;;;;9.20;3.28;;;20.80;59.40;;;;;;4925902;28;88060;-84
2023/03/29 10:31:41;;;;;;;10.82;3.10;;;20.90;59.10;;;;;;4923979;28;87268;-84
2023/03/29 10:34:11;;;;;;;9.13;3.30;;;20.90;59.80;;;;;;4945992;28;90242;-84
2023/03/29 10:36:43;;;;;;;8.27;3.22;;;20.90;59.20;;;;;;4914115;28;94313;-84
2023/03/29 10:39:12;;;;;;;11.15;3.35;;;20.90;59.20;;;;;;4920056;28;87631;-85
2023/03/29 10:41:41;;;;;;;9.30;3.60;;;21.00;59.30;;;;;;4940806;28;87208;-83
2023/03/29 10:44:30;;;;;;;13.10;3.25;;;21.10;59.20;;;;;;4944472;28;88076;-86
2023/03/29 10:47:05;;;;;;;9.60;3.40;;;21.30;59.20;;;;;;4940397;28;88514;-84
2023/03/29 10:49:39;;;;;;;11.60;3.72;;;21.40;59.00;;;;;;4926447;28;87145;-84
2023/03/29 10:52:07;;;;;;;9.73;2.67;;;21.50;58.90;;;;;;4929446;28;88821;-82
2023/03/29 10:54:32;;;;;;;9.63;3.88;;;21.60;58.80;;;;;;4925906;28;89466;-85
2023/03/29 10:57:05;;;;;;;6.07;2.78;;;21.60;59.50;;;;;;4927433;28;89451;-83
2023/03/29 11:00:00;;;;;;;11.27;3.40;;;21.60;59.00;;;;;;4917159;28;87651;-85
2023/03/29 11:03:01;;;;;;;8.07;2.80;;;21.60;59.00;;;;;;4917320;28;90275;-84
2023/03/29 11:05:30;;;;;;;6.47;3.08;;;21.70;59.40;;;;;;4925501;28;88154;-84
2023/03/29 11:08:23;;;;;;;9.73;3.28;;;21.70;59.60;;;;;;4923934;28;90124;-83
2023/03/29 11:11:01;;;;;;;9.20;2.70;;;21.70;59.60;;;;;;4926356;28;87066;-83
2023/03/29 11:14:05;;;;;;;15.40;3.60;;;21.60;60.10;;;;;;4941407;28;87435;-84
2023/03/29 11:16:51;;;;;;;8.57;3.15;;;21.60;60.30;;;;;;4856485;28;89637;-84
2023/03/29 11:19:49;;;;;;;11.93;3.67;;;21.50;60.60;;;;;;4857118;28;88305;-83
2023/03/29 11:22:33;;;;;;;12.80;3.92;;;21.50;60.50;;;;;;4802247;29;88232;-84
2023/03/29 11:25:12;;;;;;;8.63;3.15;;;21.50;60.40;;;;;;4802327;29;88918;-85
2023/03/29 11:27:48;;;;;;;;;;;21.50;60.70;;;;;;4801725;29;92810;-85
2023/03/29 11:30:32;;;;;;;10.38;3.33;;;21.50;61.10;;;;;;4802770;29;88089;-86
2023/03/29 11:33:01;;;;;;;11.45;3.65;;;21.40;59.50;;;;;;4801691;29;87636;-83
2023/03/29 11:35:46;;;;;;;11.10;3.28;;;21.50;60.10;;;;;;4786133;29;90829;-84
2023/03/29 11:38:38;;;;;;;11.63;3.33;;;21.50;60.30;;;;;;4800725;29;88468;-85
2023/03/29 11:41:09;;;;;;;9.45;3.33;;;21.60;60.40;;;;;;4803177;29;93948;-85
2023/03/29 11:43:51;;;;;;;7.68;3.20;;;21.70;60.30;;;;;;4802795;29;87522;-83
2023/03/29 11:46:31;;;;;;;9.68;3.53;;;21.70;60.90;;;;;;4800702;29;87865;-84
2023/03/29 11:49:18;;;;;;;8.15;3.15;;;21.80;60.10;;;;;;4809349;29;90114;-83
2023/03/29 11:51:59;;;;;;;15.10;3.47;;;21.80;60.10;;;;;;4802408;29;93728;-85
2023/03/29 11:54:34;;;;;;;11.90;3.50;;;21.90;60.00;;;;;;4841258;29;87699;-84
2023/03/29 11:57:06;;;;;;;7.63;2.83;;;21.90;60.20;;;;;;4863057;28;87275;-85
2023/03/29 11:59:38;;;;;;;8.75;2.90;;;22.00;60.30;;;;;;4923862;28;89000;-85
2023/03/29 12:02:15;;;;;;;10.00;3.40;;;22.00;60.10;;;;;;4923302;28;91153;-84
2023/03/29 12:04:45;;;;;;;9.15;3.15;;;21.90;59.90;;;;;;4916321;28;87454;-85
2023/03/29 12:07:17;;;;;;;10.55;3.53;;;21.90;60.00;;;;;;4940261;28;91093;-83
2023/03/29 12:09:55;;;;;;;7.45;3.13;;;21.90;60.30;;;;;;4947182;28;88169;-85
2023/03/29 12:12:26;;;;;;;8.20;3.17;;;21.90;60.40;;;;;;4947234;28;87517;-84
2023/03/29 12:15:14;;;;;;;7.75;3.28;;;21.80;60.60;;;;;;4910532;28;88112;-85
2023/03/29 12:17:45;;;;;;;10.73;3.63;;;21.80;60.70;;;;;;4933835;28;88023;-86
2023/03/29 12:20:28;;;;;;;8.93;3.03;;;21.80;60.10;;;;;;4931538;28;88412;-85
2023/03/29 12:22:54;;;;;;;10.65;3.30;;;21.80;60.60;;;;;;4933769;28;88861;-84
2023/03/29 12:25:33;;;;;;;11.48;3.40;;;21.80;60.70;;;;;;4932454;28;86964;-84
2023/03/29 12:28:32;;;;;;;7.60;3.38;;;21.70;60.20;;;;;;4930939;28;87373;-86
2023/03/29 12:31:32;;;;;;;10.63;3.08;;;21.60;60.30;;;;;;4931531;28;92881;-83
2023/03/29 12:34:31;;;;;;;11.65;3.40;;;21.70;60.70;;;;;;4895717;28;94265;-85
2023/03/29 12:37:30;;;;;;;10.75;3.35;;;21.80;60.60;;;;;;4907521;28;87149;-83
2023/03/29 12:40:15;;;;;;;11.77;2.95;;;21.90;60.30;;;;;;4905696;28;93911;-83
2023/03/29 12:43:01;;;;;;;10.93;3.38;;;21.90;60.00;;;;;;4904794;28;93335;-83
2023/03/29 12:45:31;;;;;;;7.47;2.50;;;21.90;58.50;;;;;;4901136;28;88944;-83
2023/03/29 12:47:58;;;;;;;9.13;3.20;;;21.90;59.30;;;;;;4902138;28;87467;-83
2023/03/29 12:50:40;;;;;;;6.38;3.22;;;22.00;59.50;;;;;;4903484;28;87687;-82
2023/03/29 12:53:32;;;;;;;8.88;3.45;;;21.90;59.70;;;;;;4884291;28;89342;-81
2023/03/29 12:56:07;;;;;;;9.63;3.20;;;21.90;59.90;;;;;;4884245;28;87838;-82
2023/03/29 12:58:38;;;;;;;11.68;3.67;;;21.90;60.30;;;;;;4884236;28;87065;-82
2023/03/29 13:01:25;;;;;;;6.18;2.78;;;21.90;61.20;;;;;;4886744;28;88540;-82
2023/03/29 13:03:56;;;;;;;9.48;3.05;;;21.90;60.60;;;;;;4886048;28;90805;-82
2023/03/29 13:06:34;;;;;;;6.18;2.67;;;21.90;60.80;;;;;;4876130;28;91511;-82
2023/03/29 13:09:28;;;;;;;8.70;2.33;;;21.90;61.10;;;;;;4886413;28;88411;-82